Wetterdaten: aktuell Samstag, 25.09.2021 21:10
Datum Zeit Temp. A. Feuchte A. Luftdruck Regen Wind Taupunkt Windchill Windben
25.09.2021 21:10 14,2 C 66 % 1016,8 hPa 0,0 l/m 0,0 km/h (0 Bft) 7,9 C 14,2 C 0,0 km/h (0 Bft)
25.09.2021 21:00 14,4 C 65 % 1016,6 hPa 0,0 l/m 0,0 km/h (0 Bft) 7,9 C 14,4 C 0,0 km/h (0 Bft)
25.09.2021 20:50 14,7 C 65 % 1016,6 hPa 0,0 l/m 0,0 km/h (0 Bft) 8,2 C 14,7 C 0,0 km/h (0 Bft)
25.09.2021 20:40 14,9 C 64 % 1016,6 hPa 0,0 l/m 0,0 km/h (0 Bft) 8,2 C 14,9 C 0,0 km/h (0 Bft)
25.09.2021 20:30 15,2 C 62 % 1016,4 hPa 0,0 l/m 0,0 km/h (0 Bft) 8,0 C 15,2 C 0,0 km/h (0 Bft)
25.09.2021 20:20 15,6 C 61 % 1016,5 hPa 0,0 l/m 0,0 km/h (0 Bft) 8,1 C 15,6 C 0,0 km/h (0 Bft)
25.09.2021 20:10 15,9 C 60 % 1016,4 hPa 0,0 l/m 0,0 km/h (0 Bft) 8,1 C 15,9 C 0,0 km/h (0 Bft)
25.09.2021 20:00 16,3 C 59 % 1016,4 hPa 0,0 l/m 0,0 km/h (0 Bft) 8,3 C 16,3 C 0,0 km/h (0 Bft)
25.09.2021 19:50 16,8 C 58 % 1016,4 hPa 0,0 l/m 0,0 km/h (0 Bft) 8,5 C 16,8 C 0,0 km/h (0 Bft)
25.09.2021 19:40 17,2 C 57 % 1016,5 hPa 0,0 l/m 0,0 km/h (0 Bft) 8,6 C 17,2 C 0,0 km/h (0 Bft)
25.09.2021 19:30 17,7 C 54 % 1016,5 hPa 0,0 l/m 0,0 km/h (0 Bft) 8,3 C 17,7 C 0,0 km/h (0 Bft)
25.09.2021 19:20 18,2 C 53 % 1016,4 hPa 0,0 l/m 0,0 km/h (0 Bft) 8,5 C 18,2 C 0,0 km/h (0 Bft)
25.09.2021 19:10 18,8 C 52 % 1016,4 hPa 0,0 l/m 0,0 km/h (0 Bft) 8,7 C 18,8 C 0,0 km/h (0 Bft)
25.09.2021 19:00 19,3 C 51 % 1016,2 hPa 0,0 l/m 0,0 km/h (0 Bft) 8,9 C 19,3 C 0,0 km/h (0 Bft)
25.09.2021 18:50 19,7 C 49 % 1016,1 hPa 0,0 l/m 0,5 km/h (0 Bft) 8,7 C 19,7 C 3,2 km/h (1 Bft)
25.09.2021 18:40 20,1 C 48 % 1016,1 hPa 0,0 l/m 0,5 km/h (0 Bft) 8,7 C 20,1 C 1,6 km/h (1 Bft)
25.09.2021 18:30 20,5 C 47 % 1016,3 hPa 0,0 l/m 0,8 km/h (0 Bft) 8,8 C 20,5 C 3,2 km/h (1 Bft)
25.09.2021 18:00 21,8 C 45 % 1015,9 hPa 0,0 l/m 1,6 km/h (1 Bft) 9,3 C 21,8 C 6,4 km/h (2 Bft)
25.09.2021 17:30 23,1 C 43 % 1016,0 hPa 0,0 l/m 1,6 km/h (1 Bft) 9,8 C 23,1 C 9,7 km/h (2 Bft)
25.09.2021 17:00 24,6 C 39 % 1016,2 hPa 0,0 l/m 1,6 km/h (1 Bft) 9,7 C 24,6 C 6,4 km/h (2 Bft)
25.09.2021 16:30 25,9 C 39 % 1016,5 hPa 0,0 l/m 3,2 km/h (1 Bft) 10,9 C 25,9 C 11,3 km/h (2 Bft)
_ Min-Zeit 06:30 16:00 18:00 - 00:00 06:30 06:30 00:00
Minimum _ 7,1 C 36 % 1015,9 hPa - 0,0 km/h (0 Bft) 4,6 C 7,1 C 0,0 km/h (0 Bft)
_ Max-Zeit 16:30 08:30 10:41 00:00 10:11 13:00 16:00 13:00
Maximum _ 26,8 C 87 % 1018,6 hPa 0,0 l/m 3,5 km/h
O (1 Bft)
12,9 C 26,6 C 14,5 km/h
S (3 Bft)
Durchschnitt _ 14,9 C 68 % 1017,4 hPa #0,0 l/m 1,3 km/h (1 Bft) 8,2 C 14,9 C 4,8 km/h (1 Bft)